createdAt,value
2022-11-17T00:00:00.748Z,6.3
2022-11-17T00:03:00.785Z,6.3
2022-11-17T00:06:00.772Z,6.3
2022-11-17T00:09:00.748Z,6.3
2022-11-17T00:12:00.788Z,6.3
2022-11-17T00:15:00.793Z,6.3
2022-11-17T00:18:00.776Z,6.3
2022-11-17T00:21:00.785Z,6.2
2022-11-17T00:24:00.772Z,6.2
2022-11-17T00:27:00.746Z,6.2
2022-11-17T00:30:00.769Z,6.2
2022-11-17T00:33:00.747Z,6.2
2022-11-17T00:36:00.751Z,6.2
2022-11-17T00:39:00.729Z,6.2
2022-11-17T00:42:00.745Z,6.2
2022-11-17T00:45:00.736Z,6.2
2022-11-17T00:48:00.784Z,6.2
2022-11-17T00:51:00.799Z,6.2
2022-11-17T00:54:00.773Z,6.1
2022-11-17T00:57:00.778Z,6.1
2022-11-17T01:00:00.809Z,6.1
2022-11-17T01:03:00.822Z,6.1
2022-11-17T01:06:00.791Z,6.1
2022-11-17T01:09:00.817Z,6.1
2022-11-17T01:12:00.750Z,6.1
2022-11-17T01:15:00.792Z,6.1
2022-11-17T01:18:00.777Z,6
2022-11-17T01:21:00.825Z,6
2022-11-17T01:24:00.764Z,6
2022-11-17T01:27:00.768Z,6
2022-11-17T01:30:00.780Z,6
2022-11-17T01:33:00.782Z,6
2022-11-17T01:36:00.871Z,6
2022-11-17T01:39:00.729Z,6
2022-11-17T01:42:00.776Z,6
2022-11-17T01:45:00.776Z,6
2022-11-17T01:48:00.854Z,5.9
2022-11-17T01:51:00.763Z,5.9
2022-11-17T01:54:00.838Z,6
2022-11-17T01:57:00.782Z,6
2022-11-17T02:00:00.826Z,6
2022-11-17T02:03:00.811Z,6
2022-11-17T02:06:00.771Z,6
2022-11-17T02:09:00.767Z,6
2022-11-17T02:12:00.755Z,6
2022-11-17T02:15:00.824Z,6
2022-11-17T02:18:00.728Z,6
2022-11-17T02:21:00.740Z,6
2022-11-17T02:24:00.767Z,6
2022-11-17T02:27:00.779Z,6
2022-11-17T02:30:00.815Z,6
2022-11-17T02:33:00.759Z,6
2022-11-17T02:36:00.787Z,6
2022-11-17T02:39:00.751Z,5.9
2022-11-17T02:42:00.760Z,5.9
2022-11-17T02:45:00.825Z,5.9
2022-11-17T02:48:00.769Z,5.9
2022-11-17T02:51:00.747Z,5.9
2022-11-17T02:54:00.793Z,5.9
2022-11-17T02:57:00.760Z,5.9
2022-11-17T03:00:00.790Z,5.8
2022-11-17T03:03:00.783Z,5.8
2022-11-17T03:06:00.761Z,5.8
2022-11-17T03:09:00.727Z,5.8
2022-11-17T03:12:00.946Z,5.8
2022-11-17T03:15:00.982Z,5.8
2022-11-17T03:18:00.724Z,5.8
2022-11-17T03:21:00.811Z,5.8
2022-11-17T03:24:00.745Z,5.8
2022-11-17T03:27:00.823Z,5.8
2022-11-17T03:30:00.815Z,5.8
2022-11-17T03:33:00.726Z,5.8
2022-11-17T03:36:00.831Z,5.8
2022-11-17T03:39:00.759Z,5.8
2022-11-17T03:42:00.780Z,5.8
2022-11-17T03:45:00.810Z,5.8
2022-11-17T03:48:00.691Z,5.8
2022-11-17T03:51:00.735Z,5.8
2022-11-17T03:54:00.793Z,5.8
2022-11-17T03:57:00.741Z,5.8
2022-11-17T04:00:00.785Z,5.8
2022-11-17T04:03:00.760Z,5.8
2022-11-17T04:06:00.894Z,5.8
2022-11-17T04:09:00.739Z,5.8
2022-11-17T04:12:00.743Z,5.8
2022-11-17T04:15:00.954Z,5.8
2022-11-17T04:18:00.788Z,5.7
2022-11-17T04:21:00.705Z,5.7
2022-11-17T04:24:00.755Z,5.7
2022-11-17T04:27:00.728Z,5.7
2022-11-17T04:30:00.928Z,5.7
2022-11-17T04:33:00.719Z,5.7
2022-11-17T04:36:00.742Z,5.7
2022-11-17T04:39:00.765Z,5.7
2022-11-17T04:42:00.779Z,5.7
2022-11-17T04:45:00.783Z,5.7
2022-11-17T04:48:00.738Z,5.7
2022-11-17T04:51:00.770Z,5.7
2022-11-17T04:54:00.842Z,5.7
2022-11-17T04:57:00.785Z,5.7
2022-11-17T05:00:01.654Z,5.7
2022-11-17T05:03:00.752Z,5.7
2022-11-17T05:06:00.782Z,5.7
2022-11-17T05:09:00.902Z,5.7
2022-11-17T05:12:00.743Z,5.7
2022-11-17T05:15:00.800Z,5.7
2022-11-17T05:18:00.817Z,5.7
2022-11-17T05:21:00.761Z,5.7
2022-11-17T05:24:01.131Z,5.5
2022-11-17T05:27:00.848Z,5.5
2022-11-17T05:30:00.774Z,5.5
2022-11-17T05:33:00.745Z,5.5
2022-11-17T05:36:00.762Z,5.5
2022-11-17T05:39:00.766Z,5.4
2022-11-17T05:42:00.861Z,5.4
2022-11-17T05:45:00.745Z,5.4
2022-11-17T05:48:00.756Z,5.4
2022-11-17T05:51:00.787Z,5.4
2022-11-17T05:54:00.763Z,5.4
2022-11-17T05:57:00.747Z,5.4
2022-11-17T06:00:00.834Z,5.4
2022-11-17T06:03:00.709Z,5.4
2022-11-17T06:06:00.819Z,5.4
2022-11-17T06:09:00.930Z,5.4
2022-11-17T06:12:06.494Z,5.4
2022-11-17T06:15:00.791Z,5.4
2022-11-17T06:18:00.774Z,5.4
2022-11-17T06:21:00.771Z,5.4
2022-11-17T06:24:00.792Z,5.4
2022-11-17T06:27:00.792Z,5.4
2022-11-17T06:30:00.803Z,5.4
2022-11-17T06:33:00.729Z,5.4
2022-11-17T06:36:00.776Z,5.2
2022-11-17T06:39:00.729Z,5.1
2022-11-17T06:42:00.751Z,5.1
2022-11-17T06:45:00.824Z,5.1
2022-11-17T06:48:00.852Z,5.1
2022-11-17T06:51:00.802Z,5.1
2022-11-17T06:54:00.873Z,5.1
2022-11-17T06:57:00.833Z,5
2022-11-17T07:00:00.867Z,5
2022-11-17T07:03:00.835Z,5
2022-11-17T07:06:00.790Z,5
2022-11-17T07:09:00.797Z,5
2022-11-17T07:12:00.791Z,5
2022-11-17T07:15:00.898Z,5
2022-11-17T07:18:00.830Z,5
2022-11-17T07:21:00.757Z,5
2022-11-17T07:24:00.815Z,5
2022-11-17T07:27:00.780Z,5
2022-11-17T07:30:00.825Z,4.9
2022-11-17T07:33:00.801Z,4.9
2022-11-17T07:36:00.821Z,4.9
2022-11-17T07:39:00.776Z,4.9
2022-11-17T07:42:00.835Z,4.9
2022-11-17T07:45:00.808Z,4.9
2022-11-17T07:48:00.896Z,4.9
2022-11-17T07:51:00.847Z,4.9
2022-11-17T07:54:00.816Z,4.9
2022-11-17T07:57:00.856Z,4.9
2022-11-17T08:00:00.805Z,4.9
2022-11-17T08:03:00.864Z,4.9
2022-11-17T08:06:00.819Z,4.9
2022-11-17T08:09:00.916Z,4.9
2022-11-17T08:12:00.788Z,4.9
2022-11-17T08:15:00.847Z,4.9
2022-11-17T08:18:00.767Z,4.9
2022-11-17T08:21:00.830Z,4.8
2022-11-17T08:24:00.854Z,4.8
2022-11-17T08:27:00.777Z,4.8
2022-11-17T08:30:00.815Z,4.8
2022-11-17T08:33:00.775Z,4.8
2022-11-17T08:36:00.817Z,4.8
2022-11-17T08:39:00.861Z,4.8
2022-11-17T08:42:00.808Z,4.8
2022-11-17T08:45:00.821Z,4.7
2022-11-17T08:48:00.789Z,4.7
2022-11-17T08:51:00.789Z,4.7
2022-11-17T08:54:00.814Z,4.7
2022-11-17T08:57:00.940Z,4.7
2022-11-17T09:00:00.917Z,4.7
2022-11-17T09:03:00.860Z,4.7
2022-11-17T09:06:00.942Z,4.7
2022-11-17T09:09:01.517Z,4.7
2022-11-17T09:12:00.832Z,4.7
2022-11-17T09:15:00.848Z,4.7
2022-11-17T09:18:00.840Z,4.7
2022-11-17T09:21:00.840Z,4.7
2022-11-17T09:24:00.827Z,4.7
2022-11-17T09:27:00.817Z,4.7
2022-11-17T09:30:00.884Z,4.7
2022-11-17T09:33:00.759Z,4.7
2022-11-17T09:36:00.807Z,4.7
2022-11-17T09:39:00.921Z,4.7
2022-11-17T09:42:00.837Z,4.7
2022-11-17T09:45:00.767Z,4.7
2022-11-17T09:48:40.077Z,4.7
2022-11-17T09:51:00.755Z,4.7
2022-11-17T09:54:00.909Z,4.8
2022-11-17T09:57:00.784Z,4.8
2022-11-17T10:00:00.840Z,4.8
2022-11-17T10:03:00.904Z,4.8
2022-11-17T10:06:00.851Z,4.8
2022-11-17T10:09:00.875Z,4.8
2022-11-17T10:12:00.866Z,4.8
2022-11-17T10:15:00.838Z,4.8
2022-11-17T10:18:00.912Z,4.9
2022-11-17T10:21:00.797Z,4.9
2022-11-17T10:24:00.891Z,4.9
2022-11-17T10:27:00.784Z,4.9
2022-11-17T10:30:00.825Z,4.9
2022-11-17T10:33:00.850Z,4.9
2022-11-17T10:36:00.852Z,4.9
2022-11-17T10:39:00.782Z,4.9
2022-11-17T10:42:00.771Z,4.9
2022-11-17T10:45:00.838Z,4.9
2022-11-17T10:48:00.837Z,4.9
2022-11-17T10:51:00.857Z,4.9
2022-11-17T10:54:00.809Z,4.9
2022-11-17T10:57:00.816Z,4.9
2022-11-17T11:00:00.983Z,4.9
2022-11-17T11:03:00.827Z,4.9
2022-11-17T11:06:00.892Z,4.9
2022-11-17T11:09:00.775Z,4.9
2022-11-17T11:12:00.840Z,5.1
2022-11-17T11:15:00.828Z,5.1
2022-11-17T11:18:00.833Z,5.1
2022-11-17T11:21:00.776Z,5.1
2022-11-17T11:24:00.813Z,5.1
2022-11-17T11:27:00.819Z,5.1
2022-11-17T11:30:00.865Z,5.1
2022-11-17T11:33:00.834Z,5.1
2022-11-17T11:36:00.807Z,5.1
2022-11-17T11:39:00.760Z,5.1
2022-11-17T11:42:08.080Z,5.1
2022-11-17T11:45:00.773Z,5.2
2022-11-17T11:48:00.825Z,5.2
2022-11-17T11:51:00.815Z,5.2
2022-11-17T11:54:00.803Z,5.2
2022-11-17T11:57:00.777Z,5.2
2022-11-17T12:00:04.957Z,5.2
2022-11-17T12:03:00.847Z,5.2
2022-11-17T12:06:00.804Z,5.2
2022-11-17T12:09:00.774Z,5.2
2022-11-17T12:12:00.873Z,5.4
2022-11-17T12:15:00.864Z,5.4
2022-11-17T12:18:00.911Z,5.4
2022-11-17T12:21:00.789Z,5.4
2022-11-17T12:24:00.831Z,5.4
2022-11-17T12:27:00.816Z,5.4
2022-11-17T12:30:01.079Z,5.4
2022-11-17T12:33:00.839Z,5.4
2022-11-17T12:36:00.834Z,5.4
2022-11-17T12:39:00.854Z,5.4
2022-11-17T12:42:00.782Z,5.4
2022-11-17T12:45:00.788Z,5.4
2022-11-17T12:48:34.241Z,5.4
2022-11-17T12:51:05.215Z,5.4
2022-11-17T12:54:00.842Z,5.4
2022-11-17T12:57:00.803Z,5.4
2022-11-17T13:00:00.966Z,5.4
2022-11-17T13:03:00.772Z,5.4
2022-11-17T13:06:34.762Z,5.5
2022-11-17T13:09:00.832Z,5.5
2022-11-17T13:12:00.861Z,5.5
2022-11-17T13:15:00.838Z,5.5
2022-11-17T13:18:00.837Z,5.5
2022-11-17T13:21:00.776Z,5.5
2022-11-17T13:24:00.844Z,5.5
2022-11-17T13:27:00.851Z,5.5
2022-11-17T13:30:00.827Z,5.5
2022-11-17T13:33:00.909Z,5.5
2022-11-17T13:36:00.820Z,5.5
2022-11-17T13:39:00.862Z,5.5
2022-11-17T13:42:00.816Z,5.5
2022-11-17T13:45:00.827Z,5.5
2022-11-17T13:48:00.758Z,5.5
2022-11-17T13:51:00.820Z,5.5
2022-11-17T13:54:00.865Z,5.5
2022-11-17T13:57:00.857Z,5.5
2022-11-17T14:00:00.957Z,5.5
2022-11-17T14:03:00.850Z,5.5
2022-11-17T14:06:01.158Z,5.6
2022-11-17T14:09:00.848Z,5.6
2022-11-17T14:12:00.787Z,5.6
2022-11-17T14:15:00.855Z,5.6
2022-11-17T14:18:00.853Z,5.6
2022-11-17T14:21:00.760Z,5.6
2022-11-17T14:24:00.870Z,5.6
2022-11-17T14:27:00.829Z,5.6
2022-11-17T14:30:00.803Z,5.6
2022-11-17T14:33:12.217Z,5.6
2022-11-17T14:36:00.858Z,5.6
2022-11-17T14:39:00.834Z,5.6
2022-11-17T14:42:00.802Z,5.6
2022-11-17T14:45:00.882Z,5.6
2022-11-17T14:48:00.810Z,5.6
2022-11-17T14:51:00.769Z,5.6
2022-11-17T14:54:00.872Z,5.6
2022-11-17T14:57:00.791Z,5.6
2022-11-17T15:00:00.871Z,5.6
2022-11-17T15:03:00.812Z,5.5
2022-11-17T15:06:00.833Z,5.5
2022-11-17T15:09:00.802Z,5.5
2022-11-17T15:12:00.836Z,5.5
2022-11-17T15:15:00.823Z,5.5
2022-11-17T15:18:00.861Z,5.5
2022-11-17T15:21:00.860Z,5.5
2022-11-17T15:24:00.852Z,5.5
2022-11-17T15:27:00.756Z,5.5
2022-11-17T15:30:00.752Z,5.5
2022-11-17T15:33:00.748Z,5.5
2022-11-17T15:36:00.778Z,5.5
2022-11-17T15:39:00.795Z,5.5
2022-11-17T15:42:00.799Z,5.6
2022-11-17T15:45:00.721Z,5.6
2022-11-17T15:48:00.787Z,5.6
2022-11-17T15:51:00.778Z,5.6
2022-11-17T15:54:00.768Z,5.6
2022-11-17T15:57:00.745Z,5.6
2022-11-17T16:00:00.946Z,5.6
2022-11-17T16:03:00.789Z,5.6
2022-11-17T16:06:00.914Z,5.6
2022-11-17T16:09:00.784Z,5.6
2022-11-17T16:12:00.953Z,5.6
2022-11-17T16:15:00.730Z,5.6
2022-11-17T16:18:00.759Z,5.6
2022-11-17T16:21:05.134Z,5.6
2022-11-17T16:24:00.964Z,5.6
2022-11-17T16:27:00.767Z,5.6
2022-11-17T16:30:00.723Z,5.6
2022-11-17T16:33:00.810Z,5.6
2022-11-17T16:36:00.751Z,5.6
2022-11-17T16:39:02.365Z,5.6
2022-11-17T16:42:00.801Z,5.6
2022-11-17T16:45:00.791Z,5.6
2022-11-17T16:48:00.771Z,5.6
2022-11-17T16:51:00.778Z,5.7
2022-11-17T16:54:00.813Z,5.6
2022-11-17T16:57:00.758Z,5.6
2022-11-17T17:00:00.807Z,5.6
2022-11-17T17:03:00.909Z,5.6
2022-11-17T17:06:00.788Z,5.6
2022-11-17T17:09:00.757Z,5.6
2022-11-17T17:12:00.778Z,5.6
2022-11-17T17:15:00.884Z,5.6
2022-11-17T17:18:00.755Z,5.6
2022-11-17T17:21:00.787Z,5.6
2022-11-17T17:24:00.770Z,5.6
2022-11-17T17:27:00.843Z,5.6
2022-11-17T17:30:01.050Z,5.6
2022-11-17T17:33:00.797Z,5.6
2022-11-17T17:36:00.735Z,5.6
2022-11-17T17:39:00.762Z,5.6
2022-11-17T17:42:00.727Z,5.6
2022-11-17T17:45:01.143Z,5.6
2022-11-17T17:48:00.733Z,5.6
2022-11-17T17:51:00.771Z,5.6
2022-11-17T17:54:01.045Z,5.6
2022-11-17T17:57:00.752Z,5.7
2022-11-17T18:00:00.788Z,5.7
2022-11-17T18:03:00.975Z,5.7
2022-11-17T18:06:00.767Z,5.7
2022-11-17T18:09:00.764Z,5.7
2022-11-17T18:12:00.778Z,5.7
2022-11-17T18:15:00.843Z,5.7
2022-11-17T18:18:00.783Z,5.7
2022-11-17T18:21:00.753Z,5.7
2022-11-17T18:24:00.814Z,5.7
2022-11-17T18:27:00.794Z,5.7
2022-11-17T18:30:00.811Z,5.7
2022-11-17T18:33:03.398Z,5.7
2022-11-17T18:36:00.928Z,5.7
2022-11-17T18:39:00.750Z,5.7
2022-11-17T18:42:00.791Z,5.7
2022-11-17T18:45:00.755Z,5.7
2022-11-17T18:48:00.771Z,5.7
2022-11-17T18:51:20.168Z,5.7
2022-11-17T18:54:00.752Z,5.7
2022-11-17T18:57:00.743Z,5.7
2022-11-17T19:00:00.788Z,5.6
2022-11-17T19:03:00.726Z,5.6
2022-11-17T19:06:00.705Z,5.6
2022-11-17T19:09:00.761Z,5.6
2022-11-17T19:12:00.807Z,5.6
2022-11-17T19:15:00.740Z,5.6
2022-11-17T19:18:00.796Z,5.6
2022-11-17T19:21:00.723Z,5.6
2022-11-17T19:24:00.821Z,5.6
2022-11-17T19:27:00.727Z,5.6
2022-11-17T19:30:00.816Z,5.6
2022-11-17T19:33:00.748Z,5.6
2022-11-17T19:36:00.784Z,5.6
2022-11-17T19:39:00.733Z,5.6
2022-11-17T19:42:00.770Z,5.6
2022-11-17T19:45:00.789Z,5.4
2022-11-17T19:48:00.716Z,5.4
2022-11-17T19:51:00.735Z,5.4
2022-11-17T19:54:00.878Z,5.4
2022-11-17T19:57:00.762Z,5.4
2022-11-17T20:00:00.836Z,5.4
2022-11-17T20:03:00.764Z,5.4
2022-11-17T20:06:00.748Z,5.4
2022-11-17T20:09:00.871Z,5.4
2022-11-17T20:12:00.753Z,5.4
2022-11-17T20:15:00.766Z,5.4
2022-11-17T20:18:00.755Z,5.4
2022-11-17T20:21:00.773Z,5.4
2022-11-17T20:24:00.762Z,5.3
2022-11-17T20:27:00.762Z,5.3
2022-11-17T20:30:00.744Z,5.3
2022-11-17T20:33:00.735Z,5.3
2022-11-17T20:36:00.786Z,5.3
2022-11-17T20:39:00.846Z,5.3
2022-11-17T20:42:00.800Z,5.3
2022-11-17T20:45:00.759Z,5.3
2022-11-17T20:48:00.770Z,5.3
2022-11-17T20:51:00.809Z,5.3
2022-11-17T20:54:00.766Z,5.3
2022-11-17T20:57:00.774Z,5.3
2022-11-17T21:00:00.816Z,5.3
2022-11-17T21:03:00.729Z,5.3
2022-11-17T21:06:00.752Z,5.3
2022-11-17T21:09:00.822Z,5.3
2022-11-17T21:12:00.796Z,5.3
2022-11-17T21:15:00.752Z,5.3
2022-11-17T21:18:00.753Z,5.3
2022-11-17T21:21:00.747Z,5.3
2022-11-17T21:24:00.815Z,5.3
2022-11-17T21:27:00.781Z,5.3
2022-11-17T21:30:00.760Z,5.3
2022-11-17T21:33:00.781Z,5.3
2022-11-17T21:36:00.742Z,5.3
2022-11-17T21:39:00.801Z,5.2
2022-11-17T21:42:00.749Z,5.2
2022-11-17T21:45:00.909Z,5.2
2022-11-17T21:48:00.748Z,5.2
2022-11-17T21:51:00.767Z,5.2
2022-11-17T21:54:00.782Z,5.2
2022-11-17T21:57:00.713Z,5.2
2022-11-17T22:00:00.777Z,5.2
2022-11-17T22:03:00.806Z,5.2
2022-11-17T22:06:02.662Z,5.2
2022-11-17T22:09:00.743Z,5.2
2022-11-17T22:12:00.741Z,5.2
2022-11-17T22:15:00.713Z,5.2
2022-11-17T22:18:00.743Z,5.2
2022-11-17T22:21:00.779Z,5.2
2022-11-17T22:24:00.749Z,5.2
2022-11-17T22:27:00.799Z,5.2
2022-11-17T22:30:00.918Z,5.2
2022-11-17T22:33:00.767Z,5.2
2022-11-17T22:36:00.756Z,5.2
2022-11-17T22:39:00.861Z,5.2
2022-11-17T22:42:00.746Z,5.2
2022-11-17T22:45:00.743Z,5.2
2022-11-17T22:48:00.793Z,5.2
2022-11-17T22:51:00.766Z,5.2
2022-11-17T22:54:00.790Z,5.2
2022-11-17T22:57:00.710Z,5.2
2022-11-17T23:00:01.006Z,5.2
2022-11-17T23:03:00.864Z,5.2
2022-11-17T23:06:00.727Z,5.2
2022-11-17T23:09:00.707Z,5.2
2022-11-17T23:12:00.781Z,5.2
2022-11-17T23:15:00.765Z,5.2
2022-11-17T23:18:00.744Z,5.2
2022-11-17T23:21:00.730Z,5.2
2022-11-17T23:24:00.743Z,5.2
2022-11-17T23:27:00.743Z,5.2
2022-11-17T23:30:00.847Z,5.2
2022-11-17T23:33:00.771Z,5.1
2022-11-17T23:36:00.774Z,5.1
2022-11-17T23:39:00.762Z,5.1
2022-11-17T23:42:00.771Z,5.1
2022-11-17T23:45:00.730Z,5.1
2022-11-17T23:48:00.893Z,5.1
2022-11-17T23:51:00.727Z,5.1
2022-11-17T23:54:00.763Z,5.1
2022-11-17T23:57:00.748Z,5.1
